createdAt,value
2022-09-16T00:03:34.941Z,3.80
2022-09-16T00:08:40.272Z,3.80
2022-09-16T00:13:43.231Z,3.80
2022-09-16T00:18:46.239Z,3.70
2022-09-16T00:23:48.244Z,3.80
2022-09-16T00:28:51.223Z,3.90
2022-09-16T00:33:53.911Z,3.90
2022-09-16T00:38:55.689Z,3.10
2022-09-16T00:44:02.123Z,4.40
2022-09-16T00:49:18.267Z,3.40
2022-09-16T00:54:22.298Z,3.90
2022-09-16T00:59:28.728Z,3.50
2022-09-16T01:04:35.757Z,4.30
2022-09-16T01:09:40.027Z,4.50
2022-09-16T01:14:55.796Z,3.70
2022-09-16T01:20:17.065Z,3.60
2022-09-16T01:25:39.588Z,4.50
2022-09-16T01:31:10.361Z,3.60
2022-09-16T01:36:15.862Z,5.50
2022-09-16T01:41:31.126Z,4.40
2022-09-16T01:46:48.185Z,5.40
2022-09-16T01:52:03.707Z,3.70
2022-09-16T01:57:45.922Z,3.60
2022-09-16T02:03:16.214Z,4.30
2022-09-16T02:08:43.404Z,3.10
2022-09-16T02:14:08.574Z,3.90
2022-09-16T02:19:17.626Z,4.50
2022-09-16T02:24:24.877Z,4.50
2022-09-16T02:29:34.096Z,3.00
2022-09-16T02:34:43.141Z,3.50
2022-09-16T02:40:02.812Z,3.10
2022-09-16T02:45:07.165Z,3.70
2022-09-16T02:50:18.838Z,4.30
2022-09-16T02:55:39.636Z,3.00
2022-09-16T03:00:46.400Z,4.90
2022-09-16T03:06:10.892Z,3.60
2022-09-16T03:11:37.651Z,3.20
2022-09-16T03:17:14.482Z,3.10
2022-09-16T03:22:49.642Z,3.00
2022-09-16T03:28:04.098Z,2.90
2022-09-16T03:33:13.707Z,3.00
2022-09-16T03:38:18.834Z,4.80
2022-09-16T03:43:21.332Z,2.90
2022-09-16T03:48:23.699Z,3.40
2022-09-16T03:53:25.605Z,2.50
2022-09-16T03:58:29.561Z,3.20
2022-09-16T04:03:33.453Z,2.90
2022-09-16T04:08:35.682Z,3.50
2022-09-16T04:13:37.218Z,2.20
2022-09-16T04:18:40.202Z,2.90
2022-09-16T04:23:42.652Z,3.00
2022-09-16T04:28:47.044Z,2.40
2022-09-16T04:33:50.519Z,4.10
2022-09-16T04:38:53.915Z,2.20
2022-09-16T04:43:58.489Z,3.00
2022-09-16T04:49:03.375Z,2.40
2022-09-16T04:54:05.975Z,2.90
2022-09-16T04:59:10.332Z,2.20
2022-09-16T05:04:12.731Z,2.50
2022-09-16T05:09:16.617Z,2.20
2022-09-16T05:14:20.885Z,2.40
2022-09-16T05:19:23.625Z,3.30
2022-09-16T05:24:26.270Z,2.00
2022-09-16T05:29:29.103Z,1.90
2022-09-16T05:34:31.226Z,2.30
2022-09-16T05:39:33.987Z,2.10
2022-09-16T05:44:37.211Z,1.80
2022-09-16T05:49:39.359Z,1.70
2022-09-16T05:54:42.716Z,2.80
2022-09-16T05:59:46.056Z,1.60
2022-09-16T06:04:50.351Z,1.70
2022-09-16T06:09:52.551Z,1.80
2022-09-16T06:14:54.829Z,1.40
2022-09-16T06:19:57.911Z,1.60
2022-09-16T06:24:59.620Z,1.40
2022-09-16T06:30:02.823Z,2.00
2022-09-16T06:35:06.102Z,1.40
2022-09-16T06:40:09.876Z,1.40
2022-09-16T06:45:13.033Z,1.50
2022-09-16T06:50:15.922Z,2.50
2022-09-16T06:55:18.691Z,1.90
2022-09-16T07:00:24.069Z,1.90
2022-09-16T07:05:25.776Z,1.80
2022-09-16T07:10:27.810Z,1.70
2022-09-16T07:15:31.495Z,1.90
2022-09-16T07:20:33.854Z,1.90
2022-09-16T07:25:36.104Z,1.90
2022-09-16T07:30:38.927Z,1.50
2022-09-16T07:35:41.724Z,2.40
2022-09-16T07:40:44.413Z,1.90
2022-09-16T07:45:48.408Z,2.30
2022-09-16T07:51:08.996Z,2.30
2022-09-16T07:56:18.066Z,1.70
2022-09-16T08:01:22.425Z,2.20
2022-09-16T08:06:29.799Z,2.10
2022-09-16T08:11:32.947Z,2.00
2022-09-16T08:16:35.803Z,1.70
2022-09-16T08:21:38.492Z,2.50
2022-09-16T08:26:41.853Z,2.40
2022-09-16T08:31:45.269Z,1.90
2022-09-16T08:36:47.975Z,1.50
2022-09-16T08:42:12.782Z,2.40
2022-09-16T08:47:35.122Z,1.30
2022-09-16T08:52:41.139Z,1.60
2022-09-16T08:58:08.746Z,1.50
2022-09-16T09:03:30.852Z,1.40
2022-09-16T09:08:40.654Z,1.40
2022-09-16T09:13:59.167Z,1.60
2022-09-16T09:19:16.765Z,1.40
2022-09-16T09:24:19.415Z,1.40
2022-09-16T09:29:51.866Z,1.20
2022-09-16T09:35:06.838Z,1.10
2022-09-16T09:40:12.956Z,1.10
2022-09-16T09:46:17.716Z,1.60
2022-09-16T09:51:31.651Z,1.30
2022-09-16T09:56:42.840Z,1.20
2022-09-16T10:01:55.195Z,1.10
2022-09-16T10:06:59.029Z,1.30
2022-09-16T10:12:02.092Z,1.50
2022-09-16T10:17:18.211Z,1.50
2022-09-16T10:22:28.971Z,1.40
2022-09-16T10:27:36.630Z,1.90
2022-09-16T10:32:46.157Z,1.60
2022-09-16T10:38:03.934Z,1.60
2022-09-16T10:43:15.562Z,1.40
2022-09-16T10:48:28.129Z,1.30
2022-09-16T10:53:39.143Z,1.10
2022-09-16T10:58:44.997Z,1.40
2022-09-16T11:04:03.770Z,1.40
2022-09-16T11:09:14.927Z,1.00
2022-09-16T11:14:38.732Z,1.20
2022-09-16T11:19:47.672Z,0.80
2022-09-16T11:24:53.659Z,0.70
2022-09-16T11:30:15.022Z,1.20
2022-09-16T11:35:35.169Z,0.90
2022-09-16T11:40:59.178Z,1.20
2022-09-16T11:46:02.425Z,1.40
2022-09-16T11:51:05.322Z,1.20
2022-09-16T11:56:14.406Z,1.50
2022-09-16T12:01:57.677Z,1.10
2022-09-16T12:07:12.332Z,1.80
2022-09-16T12:12:19.930Z,1.60
2022-09-16T12:17:26.753Z,1.40
2022-09-16T12:27:53.086Z,1.50
2022-09-16T12:33:06.677Z,1.60
2022-09-16T12:38:21.015Z,1.50
2022-09-16T12:43:48.338Z,1.60
2022-09-16T12:49:18.213Z,1.00
2022-09-16T12:54:45.930Z,1.50
2022-09-16T13:00:23.739Z,1.20
2022-09-16T13:05:33.560Z,1.10
2022-09-16T13:11:11.591Z,1.00
2022-09-16T13:16:07.620Z,1.10
2022-09-16T13:21:25.281Z,0.70
2022-09-16T13:26:39.425Z,1.30
2022-09-16T13:31:48.856Z,1.30
2022-09-16T13:36:51.639Z,1.60
2022-09-16T13:41:55.298Z,1.40
2022-09-16T13:47:09.667Z,1.40
2022-09-16T13:52:18.086Z,1.00
2022-09-16T13:57:36.712Z,0.90
2022-09-16T14:02:42.812Z,1.00
2022-09-16T14:08:00.259Z,1.00
2022-09-16T14:13:23.775Z,1.10
2022-09-16T14:18:32.888Z,0.90
2022-09-16T14:23:34.993Z,0.70
2022-09-16T14:28:38.774Z,1.20
2022-09-16T14:33:57.123Z,0.90
2022-09-16T14:39:02.606Z,0.90
2022-09-16T14:44:23.144Z,1.10
2022-09-16T14:49:26.398Z,0.90
2022-09-16T14:54:31.745Z,1.10
2022-09-16T14:59:37.894Z,1.10
2022-09-16T15:04:43.978Z,1.00
2022-09-16T15:09:58.007Z,1.00
2022-09-16T15:15:05.197Z,1.20
2022-09-16T15:20:20.582Z,1.10
2022-09-16T15:25:25.481Z,1.10
2022-09-16T15:30:29.955Z,1.00
2022-09-16T15:35:35.075Z,1.10
2022-09-16T15:40:38.155Z,1.10
2022-09-16T15:45:41.528Z,0.80
2022-09-16T15:50:51.565Z,0.80
2022-09-16T15:56:04.236Z,0.90
2022-09-16T16:01:16.230Z,1.00
2022-09-16T16:06:19.109Z,1.10
2022-09-16T16:11:23.089Z,0.90
2022-09-16T16:16:25.488Z,1.00
2022-09-16T16:21:27.380Z,1.10
2022-09-16T16:26:29.162Z,0.70
2022-09-16T16:31:32.460Z,1.20
2022-09-16T16:36:34.354Z,1.10
2022-09-16T16:41:36.862Z,1.30
2022-09-16T16:46:39.274Z,1.30
2022-09-16T16:51:42.297Z,1.20
2022-09-16T16:56:46.171Z,1.10
2022-09-16T17:01:52.074Z,1.20
2022-09-16T17:07:21.555Z,1.50
2022-09-16T17:12:17.881Z,1.40
2022-09-16T17:17:20.013Z,1.20
2022-09-16T17:22:21.864Z,1.80
2022-09-16T17:27:26.607Z,1.30
2022-09-16T17:32:28.667Z,1.10
2022-09-16T17:37:31.833Z,1.10
2022-09-16T17:42:34.895Z,1.10
2022-09-16T17:47:37.229Z,0.90
2022-09-16T17:52:39.691Z,0.70
2022-09-16T17:57:41.918Z,1.00
2022-09-16T18:02:44.347Z,1.90
2022-09-16T18:07:46.695Z,1.00
2022-09-16T18:12:49.636Z,1.10
2022-09-16T18:17:54.191Z,0.90
2022-09-16T18:22:57.401Z,1.20
2022-09-16T18:28:00.918Z,1.50
2022-09-16T18:33:04.004Z,0.90
2022-09-16T18:38:11.484Z,1.40
2022-09-16T18:48:16.799Z,1.50
2022-09-16T18:53:20.231Z,1.30
2022-09-16T18:58:23.705Z,1.90
2022-09-16T19:03:27.695Z,1.70
2022-09-16T19:08:31.643Z,1.40
2022-09-16T19:13:35.229Z,1.70
2022-09-16T19:18:38.316Z,1.90
2022-09-16T19:23:42.038Z,1.30
2022-09-16T19:28:43.976Z,1.40
2022-09-16T19:33:46.801Z,1.70
2022-09-16T19:38:50.558Z,2.00
2022-09-16T19:43:56.086Z,1.60
2022-09-16T19:48:59.142Z,1.70
2022-09-16T19:54:02.845Z,1.70
2022-09-16T19:59:06.037Z,2.50
2022-09-16T20:04:09.100Z,2.20
2022-09-16T20:09:14.565Z,1.90
2022-09-16T20:14:21.406Z,1.80
2022-09-16T20:19:23.522Z,2.00
2022-09-16T20:24:25.773Z,2.10
2022-09-16T20:29:32.195Z,1.90
2022-09-16T20:34:38.282Z,2.80
2022-09-16T20:39:41.502Z,1.80
2022-09-16T20:44:47.623Z,2.40
2022-09-16T20:49:52.262Z,2.10
2022-09-16T20:54:59.557Z,2.10
2022-09-16T21:00:04.453Z,1.90
2022-09-16T21:05:07.597Z,1.90
2022-09-16T21:10:11.439Z,1.50
2022-09-16T21:15:16.374Z,1.90
2022-09-16T21:20:19.036Z,2.30
2022-09-16T21:25:23.655Z,2.10
2022-09-16T21:30:26.804Z,3.00
2022-09-16T21:35:29.342Z,1.60
2022-09-16T21:40:31.566Z,1.90
2022-09-16T21:45:34.109Z,2.50
2022-09-16T21:50:37.522Z,2.30
2022-09-16T21:55:40.828Z,2.60
2022-09-16T22:00:43.905Z,2.40
2022-09-16T22:05:46.648Z,2.40
2022-09-16T22:10:49.526Z,2.10
2022-09-16T22:15:52.638Z,1.80
2022-09-16T22:20:59.355Z,1.60
2022-09-16T22:26:06.681Z,2.90
2022-09-16T22:31:15.829Z,2.20
2022-09-16T22:36:24.484Z,1.50
2022-09-16T22:41:27.840Z,2.50
2022-09-16T22:46:34.041Z,1.50
2022-09-16T22:51:37.167Z,2.20
2022-09-16T22:56:39.051Z,1.60
2022-09-16T23:01:41.001Z,1.60
2022-09-16T23:06:43.719Z,1.70
2022-09-16T23:11:46.598Z,2.30
2022-09-16T23:16:49.363Z,2.30
2022-09-16T23:21:51.576Z,1.80
2022-09-16T23:26:54.159Z,1.70
2022-09-16T23:31:57.285Z,1.90
2022-09-16T23:37:00.274Z,2.10
2022-09-16T23:42:03.564Z,1.90
2022-09-16T23:47:07.549Z,1.90
2022-09-16T23:52:09.881Z,2.20
2022-09-16T23:57:11.935Z,3.00
